Long Branch, Texas
Current Conditions -  °F | °C
As of 8:15 AM on Thursday 18 Dec 2014 (Local Time) from KRFI Reporting Station
Overcast Overcast  
Wind Chill: 41°   Ceiling: 500
Heat Index: 45°   Visibility: 7mi
Dew Point: 44°   Wind: 7mph
Humidity: 98%   Direction: 90°E
Pressure: 30.16"   Gusts: NA
Location:  32°N, 94.53°W
Report Text: KRFI 181415Z AUTO 09006KT 7SM BKN005 OVC010 07/07 A3016 RMK AO2 T00700067
Loading
Personal Weather Stations






























Interactive Weather Map New forecast layout! Learn more

10-Day Weather Forecast

Advertisements
Track Severe Weather on mobile